Wilson Gaeta — 8PTS — position and weather

sailwx.info

Track history (hours):
 
Tides and Currents Weather Stations Pressure Air Temp Water Temp Dewpoint Dewpoint Depression Visibility Wind Speed Wind Dir Waves Ship Positions

Wilson Gaeta

Last reported at 2014-Sep-16 16:34 UTC. Time now 2014-Sep-16 17:35 UTC.
Position N 54°20' E 007°21'.

Length 88 m; draft 6.3 m.

Type: Cargo ship. MMSI: 314237000.

Date/timePositionNaut miles runAvg speedWind from/ knotsBaromVisibWave heightAir tempDewpointWater temp
2014-Sep-16 16:34N 54°20' E 007°21'7 7.1
2014-Sep-16 15:33N 54°27' E 007°18'8 8.5
2014-Sep-16 14:33N 54°35' E 007°15'36 8.4
2014-Sep-16 10:17N 55°10' E 007°02'5 7.3
2014-Sep-16 09:33N 55°15' E 007°01'16 6.8
2014-Sep-16 07:15N 55°31' E 006°57'6 6.9
2014-Sep-16 06:26N 55°36' E 006°55'146 6.7
2014-Sep-15 08:33N 58°01' E 006°18'7 7.0
2014-Sep-15 07:33N 58°08' E 006°17'9 8.6
2014-Sep-15 06:34N 58°16' E 006°15'5 3.3
2014-Sep-15 05:05N 58°19' E 006°21'1 0.1
2014-Sep-14 07:32N 58°19' E 006°19'9 9.7
2014-Sep-14 06:33N 58°20' E 006°02'9 8.6
2014-Sep-14 05:33N 58°23' E 005°46'9 9.2
2014-Sep-14 04:33N 58°30' E 005°34'11 9.1
2014-Sep-14 03:24N 58°39' E 005°24'8 9.4
2014-Sep-14 02:34N 58°45' E 005°15'10 9.5
2014-Sep-14 01:33N 58°54' E 005°06'  
2014-Sep-11 15:20N 66°25' E 011°29'6 7.1
2014-Sep-11 14:33N 66°30' E 011°37'7 6.9
2014-Sep-11 13:31N 66°35' E 011°47'8 7.0
2014-Sep-11 12:21N 66°42' E 011°59'66 5.0
2014-Sep-10 23:11N 67°29' E 013°56'3 4.0
2014-Sep-10 22:33N 67°31' E 014°02'6 6.1
2014-Sep-10 21:32N 67°30' E 014°18'7 7.0
2014-Sep-10 20:33N 67°30' E 014°36'9 8.4
2014-Sep-10 19:28N 67°35' E 014°56'10 0.5
2014-Sep-10 00:29N 67°30' E 014°34'  
Track history (hours):
 
Tides and Currents Weather Stations Pressure Air Temp Water Temp Dewpoint Dewpoint Depression Visibility Wind Speed Wind Dir Waves Ship Positions

Wilson Gaeta

Last reported at 2014-Sep-16 16:34 UTC. Time now 2014-Sep-16 17:35 UTC.
Position N 54°20' E 007°21'.

Length 88 m; draft 6.3 m.

Type: Cargo ship. MMSI: 314237000.

Date/timePositionNaut miles runAvg speedWind from/ knotsBaromVisibWave heightAir tempDewpointWater temp
2014-Sep-16 16:34N 54°20' E 007°21'7 7.1
2014-Sep-16 15:33N 54°27' E 007°18'8 8.5
2014-Sep-16 14:33N 54°35' E 007°15'36 8.4
2014-Sep-16 10:17N 55°10' E 007°02'5 7.3
2014-Sep-16 09:33N 55°15' E 007°01'16 6.8
2014-Sep-16 07:15N 55°31' E 006°57'6 6.9
2014-Sep-16 06:26N 55°36' E 006°55'146 6.7
2014-Sep-15 08:33N 58°01' E 006°18'7 7.0
2014-Sep-15 07:33N 58°08' E 006°17'9 8.6
2014-Sep-15 06:34N 58°16' E 006°15'5 3.3
2014-Sep-15 05:05N 58°19' E 006°21'1 0.1
2014-Sep-14 07:32N 58°19' E 006°19'9 9.7
2014-Sep-14 06:33N 58°20' E 006°02'9 8.6
2014-Sep-14 05:33N 58°23' E 005°46'9 9.2
2014-Sep-14 04:33N 58°30' E 005°34'11 9.1
2014-Sep-14 03:24N 58°39' E 005°24'8 9.4
2014-Sep-14 02:34N 58°45' E 005°15'10 9.5
2014-Sep-14 01:33N 58°54' E 005°06'  
2014-Sep-11 15:20N 66°25' E 011°29'6 7.1
2014-Sep-11 14:33N 66°30' E 011°37'7 6.9
2014-Sep-11 13:31N 66°35' E 011°47'8 7.0
2014-Sep-11 12:21N 66°42' E 011°59'66 5.0
2014-Sep-10 23:11N 67°29' E 013°56'3 4.0
2014-Sep-10 22:33N 67°31' E 014°02'6 6.1
2014-Sep-10 21:32N 67°30' E 014°18'7 7.0
2014-Sep-10 20:33N 67°30' E 014°36'9 8.4
2014-Sep-10 19:28N 67°35' E 014°56'10 0.5
2014-Sep-10 00:29N 67°30' E 014°34'  

Dump ship's entire track history